sensor_id;sensor_type;location;lat;lon;timestamp;P1;durP1;ratioP1;P2;durP2;ratioP2
61840;SDS011;47773;53.174;6.614;2024-02-21T00:02:09;16.92;;;3.05;;
61840;SDS011;47773;53.174;6.614;2024-02-21T00:04:35;11.27;;;2.45;;
61840;SDS011;47773;53.174;6.614;2024-02-21T00:07:01;16.05;;;2.72;;
61840;SDS011;47773;53.174;6.614;2024-02-21T00:09:27;16.70;;;3.20;;
61840;SDS011;47773;53.174;6.614;2024-02-21T00:11:53;17.70;;;3.33;;
61840;SDS011;47773;53.174;6.614;2024-02-21T00:14:18;11.80;;;2.63;;
61840;SDS011;47773;53.174;6.614;2024-02-21T00:16:45;16.55;;;2.88;;
61840;SDS011;47773;53.174;6.614;2024-02-21T00:19:10;13.50;;;3.17;;
61840;SDS011;47773;53.174;6.614;2024-02-21T00:21:36;13.18;;;2.60;;
61840;SDS011;47773;53.174;6.614;2024-02-21T00:24:01;14.60;;;2.88;;
61840;SDS011;47773;53.174;6.614;2024-02-21T00:26:27;17.55;;;3.15;;
61840;SDS011;47773;53.174;6.614;2024-02-21T00:28:53;19.60;;;3.08;;
61840;SDS011;47773;53.174;6.614;2024-02-21T00:31:18;14.13;;;2.85;;
61840;SDS011;47773;53.174;6.614;2024-02-21T00:33:44;20.52;;;3.70;;
61840;SDS011;47773;53.174;6.614;2024-02-21T00:36:09;12.77;;;3.15;;
61840;SDS011;47773;53.174;6.614;2024-02-21T00:38:35;14.82;;;2.80;;
61840;SDS011;47773;53.174;6.614;2024-02-21T00:41:00;11.13;;;2.53;;
61840;SDS011;47773;53.174;6.614;2024-02-21T00:43:26;21.52;;;3.15;;
61840;SDS011;47773;53.174;6.614;2024-02-21T00:45:52;18.63;;;3.45;;
61840;SDS011;47773;53.174;6.614;2024-02-21T00:48:17;22.33;;;3.30;;
61840;SDS011;47773;53.174;6.614;2024-02-21T00:50:44;19.60;;;3.30;;
61840;SDS011;47773;53.174;6.614;2024-02-21T00:53:09;18.67;;;3.53;;
61840;SDS011;47773;53.174;6.614;2024-02-21T00:55:35;21.30;;;3.97;;
61840;SDS011;47773;53.174;6.614;2024-02-21T00:58:01;21.90;;;3.55;;
61840;SDS011;47773;53.174;6.614;2024-02-21T01:00:26;18.10;;;3.30;;
61840;SDS011;47773;53.174;6.614;2024-02-21T01:02:52;17.05;;;3.25;;
61840;SDS011;47773;53.174;6.614;2024-02-21T01:05:18;18.02;;;3.63;;
61840;SDS011;47773;53.174;6.614;2024-02-21T01:07:44;19.02;;;3.45;;
61840;SDS011;47773;53.174;6.614;2024-02-21T01:10:09;16.02;;;4.15;;
61840;SDS011;47773;53.174;6.614;2024-02-21T01:12:35;15.15;;;3.65;;
61840;SDS011;47773;53.174;6.614;2024-02-21T01:15:01;26.70;;;4.88;;
61840;SDS011;47773;53.174;6.614;2024-02-21T01:17:27;17.48;;;3.63;;
61840;SDS011;47773;53.174;6.614;2024-02-21T01:19:53;23.00;;;4.03;;
61840;SDS011;47773;53.174;6.614;2024-02-21T01:22:18;20.42;;;4.20;;
61840;SDS011;47773;53.174;6.614;2024-02-21T01:24:44;15.93;;;3.67;;
61840;SDS011;47773;53.174;6.614;2024-02-21T01:27:10;16.05;;;3.70;;
61840;SDS011;47773;53.174;6.614;2024-02-21T01:29:35;18.48;;;4.90;;
61840;SDS011;47773;53.174;6.614;2024-02-21T01:32:01;23.33;;;4.38;;
61840;SDS011;47773;53.174;6.614;2024-02-21T01:34:27;20.65;;;4.68;;
61840;SDS011;47773;53.174;6.614;2024-02-21T01:36:52;19.13;;;4.25;;
61840;SDS011;47773;53.174;6.614;2024-02-21T01:39:18;23.23;;;4.30;;
61840;SDS011;47773;53.174;6.614;2024-02-21T01:41:43;20.02;;;4.20;;
61840;SDS011;47773;53.174;6.614;2024-02-21T01:44:09;24.80;;;4.95;;
61840;SDS011;47773;53.174;6.614;2024-02-21T01:46:35;14.02;;;4.10;;
61840;SDS011;47773;53.174;6.614;2024-02-21T01:49:01;17.48;;;4.43;;
61840;SDS011;47773;53.174;6.614;2024-02-21T01:51:27;16.15;;;4.53;;
61840;SDS011;47773;53.174;6.614;2024-02-21T01:53:53;16.65;;;5.13;;
61840;SDS011;47773;53.174;6.614;2024-02-21T01:56:22;16.45;;;4.10;;
61840;SDS011;47773;53.174;6.614;2024-02-21T01:58:48;13.73;;;3.55;;
61840;SDS011;47773;53.174;6.614;2024-02-21T02:01:14;8.75;;;3.50;;
61840;SDS011;47773;53.174;6.614;2024-02-21T02:03:41;10.10;;;3.65;;
61840;SDS011;47773;53.174;6.614;2024-02-21T02:06:07;11.65;;;3.50;;
61840;SDS011;47773;53.174;6.614;2024-02-21T02:08:33;12.52;;;3.42;;
61840;SDS011;47773;53.174;6.614;2024-02-21T02:10:59;17.23;;;3.38;;
61840;SDS011;47773;53.174;6.614;2024-02-21T02:13:25;12.55;;;2.88;;
61840;SDS011;47773;53.174;6.614;2024-02-21T02:15:50;9.40;;;3.00;;
61840;SDS011;47773;53.174;6.614;2024-02-21T02:18:16;11.63;;;3.17;;
61840;SDS011;47773;53.174;6.614;2024-02-21T02:20:45;16.90;;;3.85;;
61840;SDS011;47773;53.174;6.614;2024-02-21T02:23:12;11.65;;;3.28;;
61840;SDS011;47773;53.174;6.614;2024-02-21T02:25:45;11.77;;;3.05;;
61840;SDS011;47773;53.174;6.614;2024-02-21T02:28:14;9.55;;;3.28;;
61840;SDS011;47773;53.174;6.614;2024-02-21T02:30:40;11.40;;;3.15;;
61840;SDS011;47773;53.174;6.614;2024-02-21T02:33:06;9.65;;;2.97;;
61840;SDS011;47773;53.174;6.614;2024-02-21T02:35:31;12.35;;;2.97;;
61840;SDS011;47773;53.174;6.614;2024-02-21T02:37:58;10.00;;;2.65;;
61840;SDS011;47773;53.174;6.614;2024-02-21T02:40:23;8.00;;;2.75;;
61840;SDS011;47773;53.174;6.614;2024-02-21T02:42:49;11.77;;;3.00;;
61840;SDS011;47773;53.174;6.614;2024-02-21T02:45:16;9.50;;;3.25;;
61840;SDS011;47773;53.174;6.614;2024-02-21T02:47:43;11.95;;;2.88;;
61840;SDS011;47773;53.174;6.614;2024-02-21T02:50:10;15.80;;;3.47;;
61840;SDS011;47773;53.174;6.614;2024-02-21T02:52:36;18.58;;;3.60;;
61840;SDS011;47773;53.174;6.614;2024-02-21T02:55:02;17.60;;;3.60;;
61840;SDS011;47773;53.174;6.614;2024-02-21T02:57:28;22.40;;;3.85;;
61840;SDS011;47773;53.174;6.614;2024-02-21T02:59:54;16.80;;;3.67;;
61840;SDS011;47773;53.174;6.614;2024-02-21T03:02:20;19.98;;;3.50;;
61840;SDS011;47773;53.174;6.614;2024-02-21T03:04:45;21.38;;;4.05;;
61840;SDS011;47773;53.174;6.614;2024-02-21T03:07:11;17.35;;;3.35;;
61840;SDS011;47773;53.174;6.614;2024-02-21T03:09:37;18.60;;;4.25;;
61840;SDS011;47773;53.174;6.614;2024-02-21T03:12:03;16.25;;;4.35;;
61840;SDS011;47773;53.174;6.614;2024-02-21T03:14:30;22.38;;;3.97;;
61840;SDS011;47773;53.174;6.614;2024-02-21T03:16:56;31.10;;;4.88;;
61840;SDS011;47773;53.174;6.614;2024-02-21T03:19:23;20.25;;;4.47;;
61840;SDS011;47773;53.174;6.614;2024-02-21T03:21:48;22.75;;;4.75;;
61840;SDS011;47773;53.174;6.614;2024-02-21T03:24:18;16.05;;;4.30;;
61840;SDS011;47773;53.174;6.614;2024-02-21T03:26:44;18.73;;;3.50;;
61840;SDS011;47773;53.174;6.614;2024-02-21T03:29:11;14.43;;;4.18;;
61840;SDS011;47773;53.174;6.614;2024-02-21T03:31:37;17.63;;;4.55;;
61840;SDS011;47773;53.174;6.614;2024-02-21T03:34:02;13.60;;;3.85;;
61840;SDS011;47773;53.174;6.614;2024-02-21T03:36:28;22.33;;;5.45;;
61840;SDS011;47773;53.174;6.614;2024-02-21T03:38:54;25.80;;;4.90;;
61840;SDS011;47773;53.174;6.614;2024-02-21T03:41:20;20.70;;;4.78;;
61840;SDS011;47773;53.174;6.614;2024-02-21T03:43:46;18.13;;;4.47;;
61840;SDS011;47773;53.174;6.614;2024-02-21T03:46:12;19.55;;;4.40;;
61840;SDS011;47773;53.174;6.614;2024-02-21T03:48:37;23.08;;;4.63;;
61840;SDS011;47773;53.174;6.614;2024-02-21T03:51:03;16.77;;;3.92;;
61840;SDS011;47773;53.174;6.614;2024-02-21T03:53:30;27.80;;;4.63;;
61840;SDS011;47773;53.174;6.614;2024-02-21T03:55:55;16.10;;;4.30;;
61840;SDS011;47773;53.174;6.614;2024-02-21T03:58:21;20.40;;;4.40;;
61840;SDS011;47773;53.174;6.614;2024-02-21T04:00:47;20.83;;;4.50;;
61840;SDS011;47773;53.174;6.614;2024-02-21T04:03:13;27.23;;;5.10;;
61840;SDS011;47773;53.174;6.614;2024-02-21T04:05:38;17.58;;;4.15;;
61840;SDS011;47773;53.174;6.614;2024-02-21T04:08:04;18.48;;;4.90;;
61840;SDS011;47773;53.174;6.614;2024-02-21T04:10:30;23.67;;;4.70;;
61840;SDS011;47773;53.174;6.614;2024-02-21T04:12:56;19.42;;;4.38;;
61840;SDS011;47773;53.174;6.614;2024-02-21T04:15:22;20.95;;;4.30;;
61840;SDS011;47773;53.174;6.614;2024-02-21T04:17:47;28.70;;;5.15;;
61840;SDS011;47773;53.174;6.614;2024-02-21T04:20:14;21.73;;;4.40;;
61840;SDS011;47773;53.174;6.614;2024-02-21T04:22:44;23.10;;;4.70;;
61840;SDS011;47773;53.174;6.614;2024-02-21T04:25:10;18.80;;;4.50;;
61840;SDS011;47773;53.174;6.614;2024-02-21T04:27:37;17.20;;;4.07;;
61840;SDS011;47773;53.174;6.614;2024-02-21T04:30:03;12.82;;;3.70;;
61840;SDS011;47773;53.174;6.614;2024-02-21T04:32:30;19.10;;;4.35;;
61840;SDS011;47773;53.174;6.614;2024-02-21T04:34:55;21.35;;;4.53;;
61840;SDS011;47773;53.174;6.614;2024-02-21T04:37:21;20.00;;;4.20;;
61840;SDS011;47773;53.174;6.614;2024-02-21T04:39:48;14.20;;;4.13;;
61840;SDS011;47773;53.174;6.614;2024-02-21T04:42:14;23.58;;;4.50;;
61840;SDS011;47773;53.174;6.614;2024-02-21T04:44:40;19.27;;;4.05;;
61840;SDS011;47773;53.174;6.614;2024-02-21T04:47:06;20.80;;;4.28;;
61840;SDS011;47773;53.174;6.614;2024-02-21T04:49:32;17.02;;;4.45;;
61840;SDS011;47773;53.174;6.614;2024-02-21T04:51:58;23.00;;;4.32;;
61840;SDS011;47773;53.174;6.614;2024-02-21T04:54:24;19.98;;;4.80;;
61840;SDS011;47773;53.174;6.614;2024-02-21T04:56:50;30.77;;;4.60;;
61840;SDS011;47773;53.174;6.614;2024-02-21T04:59:16;21.50;;;4.55;;
61840;SDS011;47773;53.174;6.614;2024-02-21T05:01:41;21.33;;;4.28;;
61840;SDS011;47773;53.174;6.614;2024-02-21T05:04:07;20.95;;;4.22;;
61840;SDS011;47773;53.174;6.614;2024-02-21T05:06:37;23.15;;;4.30;;
61840;SDS011;47773;53.174;6.614;2024-02-21T05:09:07;27.25;;;4.57;;
61840;SDS011;47773;53.174;6.614;2024-02-21T05:11:33;24.48;;;4.75;;
61840;SDS011;47773;53.174;6.614;2024-02-21T05:14:00;24.23;;;5.40;;
61840;SDS011;47773;53.174;6.614;2024-02-21T05:16:25;19.92;;;5.03;;
61840;SDS011;47773;53.174;6.614;2024-02-21T05:18:51;21.58;;;4.47;;
61840;SDS011;47773;53.174;6.614;2024-02-21T05:21:17;21.50;;;4.90;;
61840;SDS011;47773;53.174;6.614;2024-02-21T05:23:42;21.02;;;4.30;;
61840;SDS011;47773;53.174;6.614;2024-02-21T05:26:08;18.45;;;4.40;;
61840;SDS011;47773;53.174;6.614;2024-02-21T05:28:34;19.55;;;4.78;;
61840;SDS011;47773;53.174;6.614;2024-02-21T05:31:00;25.77;;;4.18;;
61840;SDS011;47773;53.174;6.614;2024-02-21T05:33:25;22.33;;;4.20;;
61840;SDS011;47773;53.174;6.614;2024-02-21T05:35:52;23.08;;;4.45;;
61840;SDS011;47773;53.174;6.614;2024-02-21T05:38:17;13.15;;;3.47;;
61840;SDS011;47773;53.174;6.614;2024-02-21T05:40:46;16.70;;;4.15;;
61840;SDS011;47773;53.174;6.614;2024-02-21T05:43:13;25.38;;;4.00;;
61840;SDS011;47773;53.174;6.614;2024-02-21T05:45:38;23.00;;;4.25;;
61840;SDS011;47773;53.174;6.614;2024-02-21T05:48:04;22.55;;;4.32;;
61840;SDS011;47773;53.174;6.614;2024-02-21T05:50:30;22.60;;;4.30;;
61840;SDS011;47773;53.174;6.614;2024-02-21T05:52:57;21.42;;;4.22;;
61840;SDS011;47773;53.174;6.614;2024-02-21T05:55:23;22.60;;;4.95;;
61840;SDS011;47773;53.174;6.614;2024-02-21T05:57:48;23.08;;;4.40;;
61840;SDS011;47773;53.174;6.614;2024-02-21T06:00:14;19.77;;;4.30;;
61840;SDS011;47773;53.174;6.614;2024-02-21T06:02:41;26.63;;;4.22;;
61840;SDS011;47773;53.174;6.614;2024-02-21T06:05:07;23.85;;;5.05;;
61840;SDS011;47773;53.174;6.614;2024-02-21T06:07:34;21.02;;;3.88;;
61840;SDS011;47773;53.174;6.614;2024-02-21T06:10:00;28.80;;;4.90;;
61840;SDS011;47773;53.174;6.614;2024-02-21T06:12:26;21.33;;;4.32;;
61840;SDS011;47773;53.174;6.614;2024-02-21T06:14:52;27.70;;;5.13;;
61840;SDS011;47773;53.174;6.614;2024-02-21T06:17:18;25.30;;;5.15;;
61840;SDS011;47773;53.174;6.614;2024-02-21T06:19:43;21.27;;;5.07;;
61840;SDS011;47773;53.174;6.614;2024-02-21T06:22:12;21.48;;;4.55;;
61840;SDS011;47773;53.174;6.614;2024-02-21T06:24:38;21.70;;;5.00;;
61840;SDS011;47773;53.174;6.614;2024-02-21T06:27:04;20.77;;;4.60;;
61840;SDS011;47773;53.174;6.614;2024-02-21T06:29:33;27.25;;;4.65;;
61840;SDS011;47773;53.174;6.614;2024-02-21T06:31:59;19.58;;;4.95;;
61840;SDS011;47773;53.174;6.614;2024-02-21T06:34:25;26.95;;;5.13;;
61840;SDS011;47773;53.174;6.614;2024-02-21T06:36:50;24.92;;;5.90;;
61840;SDS011;47773;53.174;6.614;2024-02-21T06:39:16;31.55;;;4.93;;
61840;SDS011;47773;53.174;6.614;2024-02-21T06:41:42;29.63;;;4.80;;
61840;SDS011;47773;53.174;6.614;2024-02-21T06:44:08;20.73;;;5.28;;
61840;SDS011;47773;53.174;6.614;2024-02-21T06:46:33;21.23;;;5.70;;
61840;SDS011;47773;53.174;6.614;2024-02-21T06:49:00;27.38;;;5.57;;
61840;SDS011;47773;53.174;6.614;2024-02-21T06:51:26;15.23;;;4.60;;
61840;SDS011;47773;53.174;6.614;2024-02-21T06:53:53;23.75;;;5.50;;
61840;SDS011;47773;53.174;6.614;2024-02-21T06:56:19;22.88;;;5.60;;
61840;SDS011;47773;53.174;6.614;2024-02-21T06:58:45;24.05;;;6.53;;
61840;SDS011;47773;53.174;6.614;2024-02-21T07:01:11;29.30;;;6.00;;
61840;SDS011;47773;53.174;6.614;2024-02-21T07:03:36;32.47;;;7.57;;
61840;SDS011;47773;53.174;6.614;2024-02-21T07:06:02;25.88;;;7.68;;
61840;SDS011;47773;53.174;6.614;2024-02-21T07:08:28;27.63;;;7.70;;
61840;SDS011;47773;53.174;6.614;2024-02-21T07:10:54;34.15;;;9.18;;
61840;SDS011;47773;53.174;6.614;2024-02-21T07:13:19;25.52;;;8.65;;
61840;SDS011;47773;53.174;6.614;2024-02-21T07:15:46;39.05;;;9.13;;
61840;SDS011;47773;53.174;6.614;2024-02-21T07:18:13;35.05;;;9.65;;
61840;SDS011;47773;53.174;6.614;2024-02-21T07:20:38;37.13;;;10.98;;
61840;SDS011;47773;53.174;6.614;2024-02-21T07:23:06;38.78;;;11.10;;
61840;SDS011;47773;53.174;6.614;2024-02-21T07:25:32;46.17;;;10.32;;
61840;SDS011;47773;53.174;6.614;2024-02-21T07:27:58;46.10;;;10.55;;
61840;SDS011;47773;53.174;6.614;2024-02-21T07:30:23;37.30;;;9.70;;
61840;SDS011;47773;53.174;6.614;2024-02-21T07:32:49;40.97;;;10.32;;
61840;SDS011;47773;53.174;6.614;2024-02-21T07:35:16;26.65;;;7.95;;
61840;SDS011;47773;53.174;6.614;2024-02-21T07:37:44;40.05;;;8.95;;
61840;SDS011;47773;53.174;6.614;2024-02-21T07:40:13;38.08;;;7.97;;
61840;SDS011;47773;53.174;6.614;2024-02-21T07:42:40;30.63;;;6.80;;
61840;SDS011;47773;53.174;6.614;2024-02-21T07:45:06;34.60;;;7.00;;
61840;SDS011;47773;53.174;6.614;2024-02-21T07:47:33;29.98;;;6.63;;
61840;SDS011;47773;53.174;6.614;2024-02-21T07:49:59;35.40;;;7.00;;
61840;SDS011;47773;53.174;6.614;2024-02-21T07:52:24;27.90;;;5.88;;
61840;SDS011;47773;53.174;6.614;2024-02-21T07:54:50;29.65;;;5.22;;
61840;SDS011;47773;53.174;6.614;2024-02-21T07:57:16;25.35;;;5.32;;
61840;SDS011;47773;53.174;6.614;2024-02-21T07:59:42;24.80;;;4.97;;
61840;SDS011;47773;53.174;6.614;2024-02-21T08:02:08;24.67;;;4.78;;
61840;SDS011;47773;53.174;6.614;2024-02-21T08:04:33;14.70;;;4.35;;
61840;SDS011;47773;53.174;6.614;2024-02-21T08:06:59;19.65;;;4.72;;
61840;SDS011;47773;53.174;6.614;2024-02-21T08:09:27;21.02;;;4.97;;
61840;SDS011;47773;53.174;6.614;2024-02-21T08:11:56;17.88;;;4.28;;
61840;SDS011;47773;53.174;6.614;2024-02-21T08:14:22;15.43;;;4.03;;
61840;SDS011;47773;53.174;6.614;2024-02-21T08:16:50;16.02;;;4.05;;
61840;SDS011;47773;53.174;6.614;2024-02-21T08:19:16;17.98;;;4.50;;
61840;SDS011;47773;53.174;6.614;2024-02-21T08:21:43;14.70;;;4.15;;
61840;SDS011;47773;53.174;6.614;2024-02-21T08:24:08;13.90;;;3.95;;
61840;SDS011;47773;53.174;6.614;2024-02-21T08:26:34;25.52;;;4.65;;
61840;SDS011;47773;53.174;6.614;2024-02-21T08:29:01;15.05;;;4.22;;
61840;SDS011;47773;53.174;6.614;2024-02-21T08:31:26;12.32;;;3.88;;
61840;SDS011;47773;53.174;6.614;2024-02-21T08:33:59;17.55;;;3.88;;
61840;SDS011;47773;53.174;6.614;2024-02-21T08:36:29;15.07;;;3.88;;
61840;SDS011;47773;53.174;6.614;2024-02-21T08:38:58;19.70;;;4.10;;
61840;SDS011;47773;53.174;6.614;2024-02-21T08:41:24;18.65;;;4.50;;
61840;SDS011;47773;53.174;6.614;2024-02-21T08:43:53;17.85;;;4.20;;
61840;SDS011;47773;53.174;6.614;2024-02-21T08:46:20;14.65;;;4.40;;
61840;SDS011;47773;53.174;6.614;2024-02-21T08:48:46;19.75;;;4.18;;
61840;SDS011;47773;53.174;6.614;2024-02-21T08:51:12;23.55;;;4.72;;
61840;SDS011;47773;53.174;6.614;2024-02-21T08:53:38;22.27;;;4.93;;
61840;SDS011;47773;53.174;6.614;2024-02-21T08:56:05;17.15;;;5.05;;
61840;SDS011;47773;53.174;6.614;2024-02-21T08:58:32;30.23;;;6.20;;
61840;SDS011;47773;53.174;6.614;2024-02-21T09:00:58;23.95;;;6.07;;
61840;SDS011;47773;53.174;6.614;2024-02-21T09:03:24;24.20;;;6.60;;
61840;SDS011;47773;53.174;6.614;2024-02-21T09:05:50;22.48;;;6.85;;
61840;SDS011;47773;53.174;6.614;2024-02-21T09:08:15;19.30;;;7.43;;
61840;SDS011;47773;53.174;6.614;2024-02-21T09:10:41;16.23;;;7.97;;
61840;SDS011;47773;53.174;6.614;2024-02-21T09:13:07;22.65;;;8.95;;
61840;SDS011;47773;53.174;6.614;2024-02-21T09:15:33;16.60;;;8.73;;
61840;SDS011;47773;53.174;6.614;2024-02-21T09:17:59;20.90;;;8.40;;
61840;SDS011;47773;53.174;6.614;2024-02-21T09:20:25;25.35;;;9.10;;
61840;SDS011;47773;53.174;6.614;2024-02-21T09:22:53;23.98;;;9.95;;
61840;SDS011;47773;53.174;6.614;2024-02-21T09:25:19;26.02;;;10.25;;
61840;SDS011;47773;53.174;6.614;2024-02-21T09:27:45;19.95;;;9.15;;
61840;SDS011;47773;53.174;6.614;2024-02-21T09:30:11;17.92;;;10.35;;
61840;SDS011;47773;53.174;6.614;2024-02-21T09:32:37;24.70;;;10.00;;
61840;SDS011;47773;53.174;6.614;2024-02-21T09:35:03;25.80;;;9.98;;
61840;SDS011;47773;53.174;6.614;2024-02-21T09:37:30;23.40;;;10.82;;
61840;SDS011;47773;53.174;6.614;2024-02-21T09:39:56;24.15;;;10.25;;
61840;SDS011;47773;53.174;6.614;2024-02-21T09:42:22;24.58;;;10.63;;
61840;SDS011;47773;53.174;6.614;2024-02-21T09:45:07;18.23;;;9.75;;
61840;SDS011;47773;53.174;6.614;2024-02-21T09:48:00;22.10;;;11.07;;
61840;SDS011;47773;53.174;6.614;2024-02-21T09:50:50;22.60;;;10.73;;
61840;SDS011;47773;53.174;6.614;2024-02-21T09:53:18;19.25;;;9.32;;
61840;SDS011;47773;53.174;6.614;2024-02-21T09:55:44;20.00;;;9.93;;
61840;SDS011;47773;53.174;6.614;2024-02-21T09:58:11;21.25;;;10.68;;
61840;SDS011;47773;53.174;6.614;2024-02-21T10:00:38;21.17;;;10.23;;
61840;SDS011;47773;53.174;6.614;2024-02-21T10:03:04;19.92;;;10.95;;
61840;SDS011;47773;53.174;6.614;2024-02-21T10:05:35;18.05;;;10.48;;
61840;SDS011;47773;53.174;6.614;2024-02-21T10:08:02;24.48;;;10.95;;
61840;SDS011;47773;53.174;6.614;2024-02-21T10:10:28;23.55;;;10.93;;
61840;SDS011;47773;53.174;6.614;2024-02-21T10:12:55;23.13;;;10.68;;
61840;SDS011;47773;53.174;6.614;2024-02-21T10:15:21;19.58;;;10.93;;
61840;SDS011;47773;53.174;6.614;2024-02-21T10:17:48;24.33;;;11.00;;
61840;SDS011;47773;53.174;6.614;2024-02-21T10:20:13;22.10;;;12.15;;
61840;SDS011;47773;53.174;6.614;2024-02-21T10:22:40;23.05;;;12.07;;
61840;SDS011;47773;53.174;6.614;2024-02-21T10:25:09;24.30;;;12.75;;
61840;SDS011;47773;53.174;6.614;2024-02-21T10:27:36;24.42;;;12.20;;
61840;SDS011;47773;53.174;6.614;2024-02-21T10:30:03;24.23;;;12.73;;
61840;SDS011;47773;53.174;6.614;2024-02-21T10:32:33;24.20;;;12.77;;
61840;SDS011;47773;53.174;6.614;2024-02-21T10:35:02;22.05;;;12.52;;
61840;SDS011;47773;53.174;6.614;2024-02-21T10:37:31;23.98;;;13.32;;
61840;SDS011;47773;53.174;6.614;2024-02-21T10:39:57;22.27;;;12.85;;
61840;SDS011;47773;53.174;6.614;2024-02-21T10:42:23;22.75;;;12.93;;
61840;SDS011;47773;53.174;6.614;2024-02-21T10:44:54;31.98;;;14.35;;
61840;SDS011;47773;53.174;6.614;2024-02-21T10:47:23;22.52;;;13.70;;
61840;SDS011;47773;53.174;6.614;2024-02-21T10:49:55;23.88;;;13.23;;
61840;SDS011;47773;53.174;6.614;2024-02-21T10:52:30;23.08;;;12.45;;
61840;SDS011;47773;53.174;6.614;2024-02-21T10:55:21;23.98;;;13.38;;
61840;SDS011;47773;53.174;6.614;2024-02-21T10:57:57;28.13;;;13.63;;
61840;SDS011;47773;53.174;6.614;2024-02-21T11:00:23;29.73;;;13.27;;
61840;SDS011;47773;53.174;6.614;2024-02-21T11:02:55;24.80;;;12.77;;
61840;SDS011;47773;53.174;6.614;2024-02-21T11:05:22;25.55;;;14.35;;
61840;SDS011;47773;53.174;6.614;2024-02-21T11:07:49;28.33;;;14.05;;
61840;SDS011;47773;53.174;6.614;2024-02-21T11:10:22;24.02;;;12.63;;
61840;SDS011;47773;53.174;6.614;2024-02-21T11:12:52;23.60;;;13.15;;
61840;SDS011;47773;53.174;6.614;2024-02-21T11:15:32;26.80;;;12.57;;
61840;SDS011;47773;53.174;6.614;2024-02-21T11:17:58;23.48;;;12.75;;
61840;SDS011;47773;53.174;6.614;2024-02-21T11:20:36;23.63;;;13.23;;
61840;SDS011;47773;53.174;6.614;2024-02-21T11:23:03;26.52;;;12.55;;
61840;SDS011;47773;53.174;6.614;2024-02-21T11:25:29;24.48;;;12.63;;
61840;SDS011;47773;53.174;6.614;2024-02-21T11:28:02;19.92;;;12.63;;
61840;SDS011;47773;53.174;6.614;2024-02-21T11:30:31;23.08;;;11.80;;
61840;SDS011;47773;53.174;6.614;2024-02-21T11:33:03;26.38;;;11.70;;
61840;SDS011;47773;53.174;6.614;2024-02-21T11:35:31;18.73;;;10.05;;
61840;SDS011;47773;53.174;6.614;2024-02-21T11:38:11;18.40;;;10.65;;
61840;SDS011;47773;53.174;6.614;2024-02-21T11:40:43;23.95;;;11.43;;
61840;SDS011;47773;53.174;6.614;2024-02-21T11:43:10;17.35;;;9.95;;
61840;SDS011;47773;53.174;6.614;2024-02-21T11:45:36;18.17;;;10.07;;
61840;SDS011;47773;53.174;6.614;2024-02-21T11:48:01;18.25;;;9.57;;
61840;SDS011;47773;53.174;6.614;2024-02-21T11:50:29;19.70;;;9.80;;
61840;SDS011;47773;53.174;6.614;2024-02-21T11:52:55;21.10;;;9.32;;
61840;SDS011;47773;53.174;6.614;2024-02-21T11:55:24;17.17;;;9.63;;
61840;SDS011;47773;53.174;6.614;2024-02-21T11:57:50;17.48;;;9.80;;
61840;SDS011;47773;53.174;6.614;2024-02-21T12:00:19;14.57;;;8.77;;
61840;SDS011;47773;53.174;6.614;2024-02-21T12:02:45;15.63;;;9.32;;
61840;SDS011;47773;53.174;6.614;2024-02-21T12:05:12;17.08;;;8.52;;
61840;SDS011;47773;53.174;6.614;2024-02-21T12:07:38;18.92;;;8.60;;
61840;SDS011;47773;53.174;6.614;2024-02-21T12:10:08;17.30;;;8.40;;
61840;SDS011;47773;53.174;6.614;2024-02-21T12:12:35;19.73;;;8.82;;
61840;SDS011;47773;53.174;6.614;2024-02-21T12:15:03;16.35;;;8.32;;
61840;SDS011;47773;53.174;6.614;2024-02-21T12:17:30;18.98;;;7.90;;
61840;SDS011;47773;53.174;6.614;2024-02-21T12:19:57;21.40;;;7.90;;
61840;SDS011;47773;53.174;6.614;2024-02-21T12:22:24;13.82;;;7.97;;
61840;SDS011;47773;53.174;6.614;2024-02-21T12:24:50;16.83;;;8.02;;
61840;SDS011;47773;53.174;6.614;2024-02-21T12:27:16;14.25;;;7.25;;
61840;SDS011;47773;53.174;6.614;2024-02-21T12:29:41;20.95;;;8.48;;
61840;SDS011;47773;53.174;6.614;2024-02-21T12:32:08;13.70;;;7.65;;
61840;SDS011;47773;53.174;6.614;2024-02-21T12:34:33;16.83;;;7.35;;
61840;SDS011;47773;53.174;6.614;2024-02-21T12:37:01;14.55;;;7.32;;
61840;SDS011;47773;53.174;6.614;2024-02-21T12:39:28;13.63;;;7.60;;
61840;SDS011;47773;53.174;6.614;2024-02-21T12:41:53;19.73;;;7.85;;
61840;SDS011;47773;53.174;6.614;2024-02-21T12:44:21;14.63;;;7.18;;
61840;SDS011;47773;53.174;6.614;2024-02-21T12:46:46;14.73;;;7.57;;
61840;SDS011;47773;53.174;6.614;2024-02-21T12:49:17;13.98;;;6.75;;
61840;SDS011;47773;53.174;6.614;2024-02-21T12:51:43;16.02;;;7.00;;
61840;SDS011;47773;53.174;6.614;2024-02-21T12:54:11;14.00;;;7.25;;
61840;SDS011;47773;53.174;6.614;2024-02-21T12:56:37;14.50;;;7.35;;
61840;SDS011;47773;53.174;6.614;2024-02-21T12:59:04;12.23;;;7.07;;
61840;SDS011;47773;53.174;6.614;2024-02-21T13:01:32;15.32;;;6.88;;
61840;SDS011;47773;53.174;6.614;2024-02-21T13:03:58;13.73;;;7.00;;
61840;SDS011;47773;53.174;6.614;2024-02-21T13:06:25;17.48;;;7.00;;
61840;SDS011;47773;53.174;6.614;2024-02-21T13:08:51;14.57;;;6.63;;
61840;SDS011;47773;53.174;6.614;2024-02-21T13:11:17;12.60;;;7.13;;
61840;SDS011;47773;53.174;6.614;2024-02-21T13:13:43;14.57;;;6.90;;
61840;SDS011;47773;53.174;6.614;2024-02-21T13:16:09;14.38;;;6.75;;
61840;SDS011;47773;53.174;6.614;2024-02-21T13:18:35;12.07;;;6.65;;
61840;SDS011;47773;53.174;6.614;2024-02-21T13:21:03;13.75;;;7.25;;
61840;SDS011;47773;53.174;6.614;2024-02-21T13:23:29;14.82;;;6.80;;
61840;SDS011;47773;53.174;6.614;2024-02-21T13:25:55;9.75;;;6.15;;
61840;SDS011;47773;53.174;6.614;2024-02-21T13:28:21;10.93;;;6.45;;
61840;SDS011;47773;53.174;6.614;2024-02-21T13:30:46;11.45;;;6.03;;
61840;SDS011;47773;53.174;6.614;2024-02-21T13:33:13;10.85;;;5.53;;
61840;SDS011;47773;53.174;6.614;2024-02-21T13:35:38;11.50;;;5.80;;
61840;SDS011;47773;53.174;6.614;2024-02-21T13:38:04;10.35;;;5.60;;
61840;SDS011;47773;53.174;6.614;2024-02-21T13:40:30;7.70;;;5.13;;
61840;SDS011;47773;53.174;6.614;2024-02-21T13:42:56;9.95;;;5.15;;
61840;SDS011;47773;53.174;6.614;2024-02-21T13:45:22;10.20;;;5.13;;
61840;SDS011;47773;53.174;6.614;2024-02-21T13:47:47;8.88;;;5.30;;
61840;SDS011;47773;53.174;6.614;2024-02-21T13:50:13;12.25;;;5.68;;
61840;SDS011;47773;53.174;6.614;2024-02-21T13:52:43;13.95;;;5.63;;
61840;SDS011;47773;53.174;6.614;2024-02-21T13:55:08;7.07;;;4.70;;
61840;SDS011;47773;53.174;6.614;2024-02-21T13:57:37;9.90;;;4.90;;
61840;SDS011;47773;53.174;6.614;2024-02-21T14:00:03;8.93;;;5.18;;
61840;SDS011;47773;53.174;6.614;2024-02-21T14:02:30;9.80;;;5.03;;
61840;SDS011;47773;53.174;6.614;2024-02-21T14:04:56;8.98;;;4.75;;
61840;SDS011;47773;53.174;6.614;2024-02-21T14:07:21;8.40;;;4.72;;
61840;SDS011;47773;53.174;6.614;2024-02-21T14:09:47;9.80;;;5.65;;
61840;SDS011;47773;53.174;6.614;2024-02-21T14:12:13;11.40;;;5.30;;
61840;SDS011;47773;53.174;6.614;2024-02-21T14:14:39;10.20;;;5.18;;
61840;SDS011;47773;53.174;6.614;2024-02-21T14:17:05;8.40;;;5.28;;
61840;SDS011;47773;53.174;6.614;2024-02-21T14:19:30;8.15;;;5.00;;
61840;SDS011;47773;53.174;6.614;2024-02-21T14:21:56;8.25;;;4.90;;
61840;SDS011;47773;53.174;6.614;2024-02-21T14:24:22;9.00;;;5.05;;
61840;SDS011;47773;53.174;6.614;2024-02-21T14:26:48;8.95;;;4.97;;
61840;SDS011;47773;53.174;6.614;2024-02-21T14:29:14;10.35;;;5.22;;
61840;SDS011;47773;53.174;6.614;2024-02-21T14:31:40;10.05;;;4.85;;